Time;durP1;ratioP1;P1;durP2;ratioP2;P2;SDS_P1;SDS_P2;PMS_P1;PMS_P2;Temp;Humidity;BMP_temperature;BMP_pressure;BME280_temperature;BME280_humidity;BME280_pressure;Samples;Min_cycle;Max_cycle;Signal;HPM_P1;HPM_P2
2021/10/12 00:00:05;;;;;;;;;3.25;3.25;;;;;21.54;42.17;102247.28;5016907;28;45538;-54
2021/10/12 00:02:31;;;;;;;;;3.00;3.00;;;;;21.53;41.68;102240.28;5016254;28;46457;-54
2021/10/12 00:04:56;;;;;;;;;3.00;3.00;;;;;21.52;42.11;102235.91;5016651;28;45210;-54
2021/10/12 00:07:22;;;;;;;;;2.25;2.25;;;;;21.53;42.05;102235.00;5016853;28;45304;-54
2021/10/12 00:09:47;;;;;;;;;2.00;2.00;;;;;21.51;42.07;102236.81;5016881;28;45192;-54
2021/10/12 00:12:13;;;;;;;;;3.25;3.25;;;;;21.52;42.04;102240.31;5016444;28;45257;-53
2021/10/12 00:14:38;;;;;;;;;5.00;2.00;;;;;21.52;42.10;102241.19;5016580;28;45281;-54
2021/10/12 00:17:03;;;;;;;;;4.25;3.50;;;;;21.52;42.16;102246.47;5016561;28;45265;-55
2021/10/12 00:19:29;;;;;;;;;4.00;2.00;;;;;21.52;42.04;102238.53;5016722;28;45241;-53
2021/10/12 00:21:54;;;;;;;;;2.75;2.00;;;;;21.52;42.09;102240.31;5031485;28;47510;-54
2021/10/12 00:24:19;;;;;;;;;3.25;2.75;;;;;21.51;42.07;102233.31;5031942;28;45268;-54
2021/10/12 00:26:45;;;;;;;;;3.50;2.50;;;;;21.51;42.09;102226.28;5016373;28;45524;-53
2021/10/12 00:29:11;;;;;;;;;3.00;3.00;;;;;21.48;41.81;102231.66;5015869;28;45531;-54
2021/10/12 00:31:36;;;;;;;;;2.50;2.50;;;;;21.50;42.12;102248.28;5016005;28;46117;-54
2021/10/12 00:34:01;;;;;;;;;2.50;2.50;;;;;21.50;42.29;102235.09;5016167;28;45345;-54
2021/10/12 00:36:27;;;;;;;;;5.25;4.00;;;;;21.50;42.26;102231.63;5016465;28;45750;-54
2021/10/12 00:38:52;;;;;;;;;3.00;3.00;;;;;21.50;41.96;102237.75;5016782;28;45599;-53
2021/10/12 00:41:20;;;;;;;;;3.25;3.25;;;;;21.49;42.12;102238.66;5016035;28;45363;-53
2021/10/12 00:43:45;;;;;;;;;3.75;2.75;;;;;21.48;42.28;102231.66;5016105;28;45682;-54
2021/10/12 00:46:11;;;;;;;;;4.00;2.00;;;;;21.47;42.41;102225.53;4998237;28;45457;-54
2021/10/12 00:48:36;;;;;;;;;2.00;2.00;;;;;21.49;42.31;102229.91;5016108;28;45183;-54
2021/10/12 00:51:02;;;;;;;;;3.75;3.00;;;;;21.48;41.98;102226.38;5016006;28;45398;-54
2021/10/12 00:53:29;;;;;;;;;2.00;2.00;;;;;21.49;42.14;102219.34;5015909;28;45403;-53
2021/10/12 00:55:55;;;;;;;;;2.00;1.75;;;;;21.47;42.41;102208.81;5016460;28;45372;-54
2021/10/12 00:58:20;;;;;;;;;2.00;2.00;;;;;21.47;42.12;102212.34;5016310;28;45594;-54
2021/10/12 01:00:46;;;;;;;;;4.00;3.00;;;;;21.46;42.28;102200.06;5015554;28;46476;-53
2021/10/12 01:03:11;;;;;;;;;5.50;3.50;;;;;21.45;42.12;102201.00;5015420;28;45436;-52
2021/10/12 01:05:37;;;;;;;;;3.00;3.00;;;;;21.46;42.02;102196.56;4998226;28;45424;-53
2021/10/12 01:08:03;;;;;;;;;4.00;3.00;;;;;21.46;42.07;102196.56;5015830;28;45485;-54
2021/10/12 01:10:29;;;;;;;;;3.00;2.00;;;;;21.47;42.34;102190.38;5015581;28;46570;-54
2021/10/12 01:12:56;;;;;;;;;4.00;3.00;;;;;21.44;42.14;102193.13;5015957;28;45384;-53
2021/10/12 01:15:21;;;;;;;;;2.00;2.00;;;;;21.45;42.33;102194.84;5015938;28;45357;-54
2021/10/12 01:17:46;;;;;;;;;3.00;3.00;;;;;21.46;42.12;102186.00;5015939;28;45199;-54
2021/10/12 01:20:13;;;;;;;;;2.00;2.00;;;;;21.45;42.38;102179.00;5015429;28;46416;-55
2021/10/12 01:22:47;;;;;;;;;2.00;2.00;;;;;21.44;42.04;102185.22;5015635;28;45230;-54
2021/10/12 01:25:15;;;;;;;;;3.25;3.00;;;;;21.44;41.99;102186.06;4997892;28;45357;-54
2021/10/12 01:27:40;;;;;;;;;3.00;2.00;;;;;21.44;42.22;102185.22;5015773;28;45532;-54
2021/10/12 01:30:07;;;;;;;;;3.50;3.50;;;;;21.43;42.20;102175.59;5015388;28;45403;-55
2021/10/12 01:32:40;;;;;;;;;3.25;2.25;;;;;21.44;42.43;102169.41;5015402;28;45759;-55
2021/10/12 01:35:06;;;;;;;;;4.25;4.00;;;;;21.43;42.11;102167.69;5015493;28;45399;-55
2021/10/12 01:37:32;;;;;;;;;3.00;3.00;;;;;21.43;42.50;102151.84;5015651;28;45317;-55
2021/10/12 01:39:57;;;;;;;;;2.00;1.25;;;;;21.43;42.27;102150.06;5015195;28;45795;-53
2021/10/12 01:42:24;;;;;;;;;3.00;3.00;;;;;21.40;42.16;102133.50;5017800;28;45321;-53
2021/10/12 01:44:51;;;;;;;;;4.25;3.00;;;;;21.41;42.21;102133.44;5018846;28;45440;-54
2021/10/12 01:47:17;;;;;;;;;2.00;2.00;;;;;21.41;42.37;102128.16;5018874;28;45183;-54
2021/10/12 01:49:42;;;;;;;;;3.25;2.50;;;;;21.41;42.23;102130.78;5018565;28;45777;-55
2021/10/12 01:52:11;;;;;;;;;3.00;2.50;;;;;21.41;42.38;102132.59;5034177;28;45442;-54
2021/10/12 01:54:36;;;;;;;;;3.00;3.00;;;;;21.40;42.15;102133.50;5018801;28;45329;-54
2021/10/12 01:57:02;;;;;;;;;3.25;3.25;;;;;21.41;42.04;102135.22;5018739;28;45409;-54
2021/10/12 01:59:27;;;;;;;;;3.75;3.00;;;;;21.41;42.32;102156.31;5018730;28;46744;-54
2021/10/12 02:01:53;;;;;;;;;3.00;3.00;;;;;21.38;42.25;102140.59;5018500;28;45473;-54
2021/10/12 02:04:18;;;;;;;;;3.00;3.00;;;;;21.40;42.32;102141.41;5018389;28;45425;-54
2021/10/12 02:06:43;;;;;;;;;2.75;2.00;;;;;21.40;42.15;102141.41;5018766;28;45340;-54
2021/10/12 02:09:09;;;;;;;;;5.25;4.00;;;;;21.41;42.31;102143.13;5018309;28;45454;-53
2021/10/12 02:11:34;;;;;;;;;1.00;1.00;;;;;21.38;42.21;102156.44;5018331;28;45429;-53
2021/10/12 02:14:00;;;;;;;;;3.00;3.00;;;;;21.40;42.22;102141.41;5017222;28;45369;-53
2021/10/12 02:16:25;;;;;;;;;3.25;3.25;;;;;21.39;42.39;102137.06;5001048;28;45613;-52
2021/10/12 02:18:50;;;;;;;;;3.25;3.25;;;;;21.39;42.32;102132.63;5018178;28;45664;-54
2021/10/12 02:21:16;;;;;;;;;2.00;2.00;;;;;21.37;42.20;102129.22;5018273;28;45321;-54
2021/10/12 02:23:41;;;;;;;;;1.50;1.50;;;;;21.38;42.43;102130.06;5018352;28;45344;-53
2021/10/12 02:26:07;;;;;;;;;4.00;2.00;;;;;21.38;42.43;102123.03;5018412;28;45554;-55
2021/10/12 02:28:32;;;;;;;;;3.75;3.00;;;;;21.38;42.19;102117.75;5017967;28;45391;-54
2021/10/12 02:30:58;;;;;;;;;2.25;2.00;;;;;21.38;42.06;102101.03;5018410;28;45378;-53
2021/10/12 02:33:23;;;;;;;;;2.75;2.75;;;;;21.37;42.38;102101.97;5000283;28;45299;-53
2021/10/12 02:35:49;;;;;;;;;3.00;3.00;;;;;21.37;42.04;102105.47;5018307;28;45314;-53
2021/10/12 02:38:15;;;;;;;;;2.75;2.00;;;;;21.37;42.50;102120.44;5017870;28;46075;-53
2021/10/12 02:40:40;;;;;;;;;2.75;2.75;;;;;21.38;41.89;102125.66;5017906;28;45405;-55
2021/10/12 02:43:05;;;;;;;;;2.50;2.50;;;;;21.37;42.12;102129.22;5018119;28;45344;-54
2021/10/12 02:45:31;;;;;;;;;2.25;2.25;;;;;21.37;42.11;102123.94;5018113;28;45361;-53
2021/10/12 02:47:56;;;;;;;;;2.00;2.00;;;;;21.36;42.22;102124.84;5017940;28;45319;-53
2021/10/12 02:50:21;;;;;;;;;2.75;2.00;;;;;21.36;42.46;102116.06;5017775;28;45458;-55
2021/10/12 02:52:47;;;;;;;;;3.25;2.25;;;;;21.36;42.19;102106.41;5017441;28;45357;-51
2021/10/12 02:55:12;;;;;;;;;2.75;2.00;;;;;21.36;41.84;102097.59;5017849;28;45477;-52
2021/10/12 02:57:37;;;;;;;;;3.00;2.00;;;;;21.35;42.33;102101.16;5017549;28;46701;-53
2021/10/12 03:00:05;;;;;;;;;2.50;2.50;;;;;21.36;42.24;102108.16;5017685;28;45400;-54
2021/10/12 03:02:31;;;;;;;;;1.50;1.50;;;;;21.34;42.58;102113.50;5017942;28;45362;-53
2021/10/12 03:04:56;;;;;;;;;4.00;3.50;;;;;21.35;42.39;102099.41;5017829;28;45539;-54
2021/10/12 03:07:21;;;;;;;;;2.75;2.75;;;;;21.34;42.40;102104.72;5016031;28;46251;-52
2021/10/12 03:09:46;;;;;;;;;2.00;2.00;;;;;21.33;42.30;102103.03;5017444;28;45464;-54
2021/10/12 03:12:12;;;;;;;;;3.25;3.25;;;;;21.35;42.38;102114.34;5017486;28;45344;-54
2021/10/12 03:14:38;;;;;;;;;2.00;2.00;;;;;21.34;42.28;102113.50;5032921;28;45614;-53
2021/10/12 03:17:03;;;;;;;;;3.50;2.25;;;;;21.34;42.46;102117.91;5017336;28;45465;-52
2021/10/12 03:19:29;;;;;;;;;4.25;4.00;;;;;21.34;42.25;102116.13;5017598;28;45284;-52
2021/10/12 03:22:14;;;;;;;;;5.00;2.00;;;;;21.34;42.33;102102.94;5017508;28;45231;-54
2021/10/12 03:24:41;;;;;;;;;3.50;2.00;;;;;21.33;42.05;102095.94;5017394;28;45246;-54
2021/10/12 03:27:07;;;;;;;;;2.50;2.50;;;;;21.33;42.34;102095.94;5017141;28;46493;-54
2021/10/12 03:29:33;;;;;;;;;5.00;3.00;;;;;21.33;42.18;102082.78;5017114;28;45770;-54
2021/10/12 03:32:01;;;;;;;;;2.00;2.00;;;;;21.33;42.60;102074.84;5032941;28;45354;-54
2021/10/12 03:34:27;;;;;;;;;3.00;3.00;;;;;21.32;42.30;102075.78;5017395;28;45373;-52
2021/10/12 03:36:53;;;;;;;;;3.00;2.25;;;;;21.31;42.46;102081.97;5016912;28;45615;-54
2021/10/12 03:39:19;;;;;;;;;3.00;2.75;;;;;21.30;42.38;102078.47;4999326;28;45372;-51
2021/10/12 03:41:44;;;;;;;;;2.75;2.50;;;;;21.32;42.40;102083.69;5017029;28;45832;-53
2021/10/12 03:44:10;;;;;;;;;2.75;2.75;;;;;21.31;42.13;102090.75;5017222;28;45221;-52
2021/10/12 03:46:36;;;;;;;;;3.25;3.00;;;;;21.31;42.30;102082.84;5016781;28;45459;-52
2021/10/12 03:49:02;;;;;;;;;2.00;2.00;;;;;21.30;42.08;102078.47;5017136;28;45351;-53
2021/10/12 03:51:27;;;;;;;;;2.00;1.00;;;;;21.29;42.43;102082.03;5016936;28;45404;-51
2021/10/12 03:53:53;;;;;;;;;2.00;2.00;;;;;21.31;42.11;102089.88;5017103;28;45448;-54
2021/10/12 03:56:18;;;;;;;;;3.00;3.00;;;;;21.31;42.06;102071.41;5016758;28;46453;-54
2021/10/12 03:58:43;;;;;;;;;2.50;1.75;;;;;21.29;42.03;102079.41;5016784;28;46193;-54
2021/10/12 04:01:09;;;;;;;;;2.50;1.50;;;;;21.30;42.46;102086.41;5031956;28;51348;-54
2021/10/12 04:03:34;;;;;;;;;2.00;2.00;;;;;21.29;42.30;102083.78;5016108;28;45662;-53
2021/10/12 04:05:59;;;;;;;;;4.00;4.00;;;;;21.29;41.92;102079.41;5016836;28;45570;-53
2021/10/12 04:08:25;;;;;;;;;2.75;1.50;;;;;21.29;42.39;102067.97;5016549;28;45441;-55
2021/10/12 04:10:50;;;;;;;;;0.00;0.00;;;;;21.29;42.27;102071.50;5016790;28;45325;-54
2021/10/12 04:13:16;;;;;;;;;2.00;2.00;;;;;21.29;42.36;102083.78;5016756;28;45322;-54
2021/10/12 04:15:41;;;;;;;;;3.00;3.00;;;;;21.28;42.41;102082.94;5016517;28;45346;-54
2021/10/12 04:18:06;;;;;;;;;2.25;2.25;;;;;21.28;42.56;102075.03;5016420;28;45326;-53
2021/10/12 04:20:33;;;;;;;;;2.00;2.00;;;;;21.28;42.55;102064.50;5016847;28;45267;-55
2021/10/12 04:22:59;;;;;;;;;2.75;2.00;;;;;21.26;42.46;102052.28;5016778;28;45228;-55
2021/10/12 04:25:24;;;;;;;;;3.00;2.00;;;;;21.27;42.31;102067.19;5016175;28;46453;-52
2021/10/12 04:27:53;;;;;;;;;2.00;2.00;;;;;21.27;42.30;102068.03;4998341;28;45421;-54
2021/10/12 04:30:18;;;;;;;;;3.00;3.00;;;;;21.26;42.20;102079.50;5031717;28;45423;-54
2021/10/12 04:32:44;;;;;;;;;3.50;3.50;;;;;21.26;42.31;102073.38;5016536;28;45345;-54
2021/10/12 04:35:09;;;;;;;;;4.00;3.00;;;;;21.26;42.43;102078.66;5016121;28;46489;-53
2021/10/12 04:37:35;;;;;;;;;7.00;5.00;;;;;21.26;42.43;102078.66;5016423;28;45342;-53
2021/10/12 04:40:00;;;;;;;;;4.75;4.00;;;;;21.24;42.48;102076.06;5016551;28;45334;-53
2021/10/12 04:42:26;;;;;;;;;4.50;4.50;;;;;21.23;42.50;102066.44;5016450;28;45175;-55
2021/10/12 04:44:53;;;;;;;;;5.50;4.00;;;;;21.22;41.96;102070.00;5016126;28;46424;-54
2021/10/12 04:47:20;;;;;;;;;4.75;3.75;;;;;21.21;42.59;102065.66;5016081;28;45809;-53
2021/10/12 04:49:46;;;;;;;;;4.00;3.75;;;;;21.22;42.56;102066.50;5016233;28;45959;-54
2021/10/12 04:52:12;;;;;;;;;9.00;5.75;;;;;21.20;42.47;102060.44;5016450;28;45393;-54
2021/10/12 04:54:37;;;;;;;;;6.50;4.50;;;;;21.22;42.24;102072.63;5016075;28;45656;-54
2021/10/12 04:57:03;;;;;;;;;5.50;4.25;;;;;21.20;42.30;102073.59;5016409;28;45440;-54
2021/10/12 04:59:28;;;;;;;;;4.50;4.50;;;;;21.21;42.23;102076.22;5016185;28;45331;-54
2021/10/12 05:01:53;;;;;;;;;5.25;5.00;;;;;21.18;42.28;102081.59;5016197;28;45515;-53
2021/10/12 05:04:19;;;;;;;;;7.00;4.25;;;;;21.20;42.27;102076.25;4997760;28;46572;-54
2021/10/12 05:06:44;;;;;;;;;9.00;4.75;;;;;21.19;42.39;102072.75;5015681;28;45341;-56
2021/10/12 05:09:09;;;;;;;;;5.00;5.00;;;;;21.19;42.34;102075.41;5015913;28;45350;-54
2021/10/12 05:11:35;;;;;;;;;7.00;5.00;;;;;21.18;42.48;102073.69;5016522;28;45337;-54
2021/10/12 05:14:00;;;;;;;;;5.00;5.00;;;;;21.17;42.49;102067.53;5015597;28;45354;-55
2021/10/12 05:16:28;;;;;;;;;5.25;4.00;;;;;21.19;42.46;102069.25;5018791;28;45313;-53
2021/10/12 05:18:57;;;;;;;;;5.75;5.00;;;;;21.17;42.63;102070.16;5034870;28;45467;-54
2021/10/12 05:21:22;;;;;;;;;4.75;4.75;;;;;21.17;42.63;102069.31;5019380;28;45488;-54
2021/10/12 05:23:47;;;;;;;;;6.00;4.00;;;;;21.18;42.51;102063.13;5019022;28;46570;-54
2021/10/12 05:26:13;;;;;;;;;3.00;3.00;;;;;21.17;42.36;102058.78;5018978;28;45470;-54
2021/10/12 05:28:39;;;;;;;;;3.75;3.75;;;;;21.16;42.24;102054.41;5019481;28;45278;-54
2021/10/12 05:31:04;;;;;;;;;3.75;3.75;;;;;21.16;42.57;102065.84;5019718;28;45372;-53
2021/10/12 05:33:30;;;;;;;;;6.00;4.00;;;;;21.15;42.57;102057.97;5000946;28;45353;-48
2021/10/12 05:35:55;;;;;;;;;3.50;3.00;;;;;21.16;42.18;102057.94;5019130;28;45342;-54
2021/10/12 05:38:21;;;;;;;;;5.00;5.00;;;;;21.17;42.16;102050.88;5019023;28;45453;-52
2021/10/12 05:40:48;;;;;;;;;0.00;0.00;;;;;21.16;42.51;102057.06;5019388;28;45502;-53
2021/10/12 05:43:14;;;;;;;;;2.50;2.50;;;;;21.14;42.45;102066.78;5018881;28;46556;-55
2021/10/12 05:45:40;;;;;;;;;4.00;4.00;;;;;21.14;42.33;102064.16;5019107;28;45777;-53
2021/10/12 05:48:07;;;;;;;;;4.00;3.00;;;;;21.13;42.53;102058.03;5019348;28;45328;-51
2021/10/12 05:50:34;;;;;;;;;4.00;4.00;;;;;21.13;42.42;102050.13;5019131;28;45296;-53
2021/10/12 05:53:15;;;;;;;;;6.25;3.00;;;;;21.14;42.62;102064.16;5018790;28;46344;-53
2021/10/12 06:00:56;;;;;;;;;4.00;3.00;;;;;21.14;42.57;102058.88;5019000;28;45171;-52
2021/10/12 06:03:22;;;;;;;;;6.00;3.50;;;;;21.12;42.64;102066.00;5018311;28;46605;-52
2021/10/12 06:05:49;;;;;;;;;3.50;3.50;;;;;21.13;42.37;102067.72;5018516;28;45267;-52
2021/10/12 06:08:14;;;;;;;;;4.00;3.25;;;;;21.12;42.41;102066.88;5018576;28;45267;-54
2021/10/12 06:10:39;;;;;;;;;2.00;2.00;;;;;21.11;42.73;102054.59;5019208;28;45451;-52
2021/10/12 06:13:12;;;;;;;;;4.00;3.00;;;;;21.11;42.47;102053.75;5018304;28;47293;-53
2021/10/12 06:15:39;;;;;;;;;7.50;3.00;;;;;21.13;42.47;102059.81;5018389;28;45814;-52
2021/10/12 06:18:05;;;;;;;;;3.50;3.00;;;;;21.12;42.50;102051.03;5018525;28;45350;-54
2021/10/12 06:20:31;;;;;;;;;3.25;3.25;;;;;21.11;42.60;102059.88;5018781;28;45668;-51
2021/10/12 06:22:56;;;;;;;;;3.50;3.50;;;;;21.12;42.85;102060.72;5018211;28;45415;-50
2021/10/12 06:25:21;;;;;;;;;3.25;3.25;;;;;21.13;42.50;102049.25;5033607;28;45559;-54
2021/10/12 06:27:47;;;;;;;;;3.25;2.00;;;;;21.12;42.19;102052.81;5017396;28;45396;-51
2021/10/12 06:30:12;;;;;;;;;7.75;4.00;;;;;21.11;42.50;102057.22;5018391;28;45564;-55
2021/10/12 06:32:38;;;;;;;;;4.00;2.00;;;;;21.13;43.14;102059.81;5018404;28;46307;-52
2021/10/12 06:35:05;;;;;;;;;6.25;3.75;;;;;21.12;42.63;102061.59;5018038;28;45337;-50
2021/10/12 06:37:31;;;;;;;;;6.25;4.00;;;;;21.13;42.47;102057.16;5018102;28;45275;-52
2021/10/12 06:39:56;;;;;;;;;3.25;3.25;;;;;21.13;42.54;102054.53;5018350;28;45501;-54
2021/10/12 06:42:21;;;;;;;;;3.00;3.00;;;;;21.12;42.56;102056.31;5017981;28;45414;-50
2021/10/12 06:44:47;;;;;;;;;3.00;3.00;;;;;21.13;42.58;102065.06;5018040;28;45497;-50
2021/10/12 06:47:12;;;;;;;;;5.75;3.00;;;;;21.14;42.71;102056.25;5018255;28;45487;-53
2021/10/12 06:49:38;;;;;;;;;2.00;2.00;;;;;21.14;42.46;102058.88;5018366;28;45507;-50
2021/10/12 06:52:03;;;;;;;;;5.00;3.75;;;;;21.16;42.91;102062.31;5017685;28;45545;-53
2021/10/12 06:54:29;;;;;;;;;3.00;3.00;;;;;21.15;42.56;102069.41;5017764;28;45234;-48
2021/10/12 06:56:57;;;;;;;;;5.50;3.50;;;;;21.17;42.96;102066.69;5017575;28;45306;-51
2021/10/12 06:59:24;;;;;;;;;3.50;3.25;;;;;21.15;42.79;102061.47;5017891;28;45820;-51
2021/10/12 07:01:49;;;;;;;;;3.50;2.75;;;;;21.17;42.87;102064.06;5017493;28;46419;-49
2021/10/12 07:04:18;;;;;;;;;4.00;3.25;;;;;21.16;42.70;102063.22;5017425;28;45457;-49
2021/10/12 07:06:44;;;;;;;;;3.75;3.75;;;;;21.17;42.97;102062.25;5017682;28;45255;-51
2021/10/12 07:09:11;;;;;;;;;4.00;4.00;;;;;21.19;42.87;102063.97;5028540;28;45482;-48
2021/10/12 07:11:39;;;;;;;;;3.75;3.75;;;;;21.19;43.00;102059.59;5016798;28;46157;-47
2021/10/12 07:14:05;;;;;;;;;6.50;3.75;;;;;21.19;42.99;102056.94;5017575;28;45365;-47
2021/10/12 07:16:30;;;;;;;;;3.25;2.00;;;;;21.20;43.41;102048.13;5017352;28;45428;-50
2021/10/12 07:18:56;;;;;;;;;3.00;3.00;;;;;21.20;43.34;102048.13;5017617;28;45242;-48
2021/10/12 07:21:21;;;;;;;;;3.00;3.00;;;;;21.24;43.12;102048.84;5017137;28;46479;-48
2021/10/12 07:23:47;;;;;;;;;6.00;3.75;;;;;21.24;43.08;102039.16;5016923;28;45338;-52
2021/10/12 07:26:12;;;;;;;;;2.25;2.00;;;;;21.23;43.31;102037.44;5017320;28;45349;-53
2021/10/12 07:28:38;;;;;;;;;4.00;3.00;;;;;21.23;42.87;102032.16;5016635;28;45486;-50
2021/10/12 07:31:04;;;;;;;;;4.00;3.00;;;;;21.27;43.26;102044.31;5015728;28;46286;-53
2021/10/12 07:33:30;;;;;;;;;4.75;4.00;;;;;21.27;43.00;102039.03;5015982;28;45330;-53
2021/10/12 07:35:56;;;;;;;;;3.00;3.00;;;;;21.25;43.12;102035.59;5016461;28;45570;-52
2021/10/12 07:38:22;;;;;;;;;5.50;4.00;;;;;21.29;43.36;102026.66;5015943;28;45459;-53
2021/10/12 07:40:47;;;;;;;;;4.00;3.00;;;;;21.30;43.43;102038.94;5015646;28;45521;-53
2021/10/12 07:43:12;;;;;;;;;3.00;3.00;;;;;21.30;43.54;102032.78;5015702;28;45838;-52
2021/10/12 07:45:38;;;;;;;;;4.50;3.50;;;;;21.32;43.19;102036.22;5016341;28;45625;-53
2021/10/12 07:48:03;;;;;;;;;3.50;3.00;;;;;21.30;43.57;102038.94;5032264;28;45292;-52
2021/10/12 07:50:29;;;;;;;;;4.75;2.50;;;;;21.33;43.27;102042.38;5016762;28;46467;-53
2021/10/12 07:52:54;;;;;;;;;5.75;3.00;;;;;21.33;43.47;102043.22;5016168;28;45334;-54
2021/10/12 07:55:33;;;;;;;;;2.00;2.00;;;;;21.35;43.32;102040.50;5015478;28;45853;-53
2021/10/12 07:58:01;;;;;;;;;3.75;3.75;;;;;21.35;43.40;102032.59;5016396;28;45441;-54
2021/10/12 08:00:28;;;;;;;;;3.00;3.00;;;;;21.34;43.37;102034.38;5015894;28;47231;-53
2021/10/12 08:02:54;;;;;;;;;4.75;4.00;;;;;21.36;43.50;102042.22;5015623;28;45399;-53
2021/10/12 08:05:23;;;;;;;;;4.75;4.00;;;;;21.37;43.33;102030.75;5015279;28;45437;-54
2021/10/12 08:07:49;;;;;;;;;3.00;3.00;;;;;21.37;43.30;102043.94;5015839;28;45163;-54
2021/10/12 08:10:16;;;;;;;;;2.50;2.50;;;;;21.37;43.38;102031.63;5015570;28;45809;-53
2021/10/12 08:12:44;;;;;;;;;3.50;3.00;;;;;21.39;43.16;102031.56;5015734;28;45508;-53
2021/10/12 08:15:10;;;;;;;;;4.00;3.00;;;;;21.37;43.06;102034.28;5016684;28;45500;-53
2021/10/12 08:17:35;;;;;;;;;4.75;2.75;;;;;21.39;43.55;102028.91;5016508;28;45353;-53
2021/10/12 08:20:01;;;;;;;;;4.25;4.25;;;;;21.39;43.38;102029.78;5015108;28;45640;-54
2021/10/12 08:22:26;;;;;;;;;6.00;3.00;;;;;21.39;43.21;102029.78;5015167;28;45903;-54
2021/10/12 08:24:51;;;;;;;;;3.25;2.75;;;;;21.40;43.24;102028.84;5015052;28;45766;-52
2021/10/12 08:27:17;;;;;;;;;4.00;2.00;;;;;21.39;43.25;102026.28;5031279;28;45554;-53
2021/10/12 08:29:42;;;;;;;;;4.00;2.00;;;;;21.40;43.47;102020.94;5015729;28;45419;-51
2021/10/12 08:32:07;;;;;;;;;5.50;3.50;;;;;21.42;43.22;102026.16;5015388;28;45417;-53
2021/10/12 08:34:33;;;;;;;;;3.00;3.00;;;;;21.42;43.14;102021.75;5015423;28;45388;-54
2021/10/12 08:36:58;;;;;;;;;2.75;2.75;;;;;21.42;43.14;102016.47;5015518;28;45243;-50
2021/10/12 08:39:30;;;;;;;;;4.00;4.00;;;;;21.44;43.17;102016.44;5015462;28;45336;-51
2021/10/12 08:42:03;;;;;;;;;3.25;3.25;;;;;21.44;43.36;102004.09;5015612;28;45890;-52
2021/10/12 08:44:29;;;;;;;;;2.75;2.75;;;;;21.44;42.99;102006.72;4997776;28;45442;-53
2021/10/12 08:46:55;;;;;;;;;4.50;4.25;;;;;21.45;43.11;102013.72;4998502;28;45470;-52
2021/10/12 08:49:21;;;;;;;;;4.00;4.00;;;;;21.46;43.48;102001.38;4995987;28;45491;-52
2021/10/12 08:51:47;;;;;;;;;4.25;4.25;;;;;21.47;43.21;101997.81;4983405;28;45493;-52
2021/10/12 08:54:12;;;;;;;;;3.25;3.25;;;;;21.46;43.05;102002.25;5016795;28;45644;-53
2021/10/12 08:56:38;;;;;;;;;6.00;3.75;;;;;21.47;43.17;101995.19;5019814;28;45327;-54
2021/10/12 08:59:04;;;;;;;;;4.00;4.00;;;;;21.46;43.12;101993.47;5018146;28;46642;-53
2021/10/12 09:01:31;;;;;;;;;3.00;3.00;;;;;21.46;42.95;101998.72;5019351;28;45315;-51
2021/10/12 09:06:31;;;;;;;;;3.50;3.50;;;;;21.39;42.84;101984.94;5019679;28;45540;-54
2021/10/12 09:09:14;;;;;;;;;3.50;3.50;;;;;21.42;42.62;101989.25;5001125;28;48111;-54
2021/10/12 09:11:40;;;;;;;;;4.00;4.00;;;;;21.42;42.92;101978.69;5019355;28;45322;-53
2021/10/12 09:14:07;;;;;;;;;3.75;3.75;;;;;21.41;43.02;101983.09;5019623;28;45236;-54
2021/10/12 09:16:43;;;;;;;;;4.00;3.00;;;;;21.41;43.05;101979.63;5001784;28;45577;-54
2021/10/12 09:19:18;;;;;;;;;5.50;2.75;;;;;21.40;43.16;101976.09;5019425;28;45743;-53
2021/10/12 09:21:46;;;;;;;;;3.00;3.00;;;;;21.41;42.97;101969.06;5019499;28;45881;-53
2021/10/12 09:24:23;;;;;;;;;4.00;2.00;;;;;21.40;42.76;101967.34;5019413;28;45273;-54
2021/10/12 09:27:06;;;;;;;;;4.25;3.00;;;;;21.41;43.01;101974.34;5019840;28;45798;-54
2021/10/12 09:32:03;;;;;;;;;3.75;3.00;;;;;21.40;43.09;101970.81;5019013;28;45302;-54
2021/10/12 09:34:29;;;;;;;;;3.25;3.25;;;;;21.40;43.08;101980.53;5019121;28;45400;-53
2021/10/12 09:36:55;;;;;;;;;3.50;3.50;;;;;21.38;43.12;101971.81;5019294;28;45440;-54
2021/10/12 09:39:34;;;;;;;;;3.75;2.75;;;;;21.40;43.07;101970.81;5018842;28;45530;-55
2021/10/12 09:42:00;;;;;;;;;3.50;3.50;;;;;21.40;42.78;101964.72;5000844;28;45922;-55
2021/10/12 09:44:25;;;;;;;;;3.00;3.00;;;;;21.40;43.04;101964.72;5018900;28;45276;-53
2021/10/12 09:46:53;;;;;;;;;2.00;2.00;;;;;21.41;43.04;101966.44;5001199;28;45578;-54
2021/10/12 09:49:23;;;;;;;;;4.00;4.00;;;;;21.40;42.78;101965.56;5019066;28;46308;-54
2021/10/12 09:51:57;;;;;;;;;3.25;3.00;;;;;21.41;43.03;101966.44;5019051;28;45678;-53
2021/10/12 09:54:25;;;;;;;;;3.50;3.00;;;;;21.40;43.09;101973.47;5019028;28;45410;-53
2021/10/12 09:56:51;;;;;;;;;3.00;3.00;;;;;21.40;42.82;101960.28;5019010;28;45541;-53
2021/10/12 09:59:17;;;;;;;;;3.50;3.00;;;;;21.42;42.89;101962.88;5018915;28;46563;-54
2021/10/12 10:01:46;;;;;;;;;2.50;2.50;;;;;21.41;42.92;101961.16;5017322;28;45846;-52
2021/10/12 10:04:16;;;;;;;;;3.75;3.00;;;;;21.42;42.88;101965.50;5018504;28;45468;-53
2021/10/12 10:06:43;;;;;;;;;3.00;3.00;;;;;21.41;43.03;101955.88;5018815;28;45495;-51
2021/10/12 10:09:11;;;;;;;;;4.25;2.75;;;;;21.41;43.10;101954.09;5000575;28;46124;-53
2021/10/12 10:11:38;;;;;;;;;4.25;4.00;;;;;21.42;42.68;101947.91;5018458;28;45289;-52
2021/10/12 10:14:06;;;;;;;;;3.25;3.00;;;;;21.44;42.77;101955.75;5018453;28;45268;-52
2021/10/12 10:16:32;;;;;;;;;3.75;2.75;;;;;21.44;42.90;101955.75;5018805;28;45464;-50
2021/10/12 10:18:59;;;;;;;;;4.25;4.25;;;;;21.43;42.81;101948.78;5018159;28;46247;-49
2021/10/12 10:21:26;;;;;;;;;4.00;4.00;;;;;21.45;42.94;101946.91;5018342;28;45620;-54
2021/10/12 10:24:19;;;;;;;;;4.00;3.00;;;;;21.44;42.61;101943.41;5018735;28;45385;-53
2021/10/12 10:26:45;;;;;;;;;9.75;2.50;;;;;21.45;42.95;101941.63;5018078;28;45590;-49
2021/10/12 10:29:22;;;;;;;;;3.75;3.00;;;;;21.45;42.85;101937.22;5017921;28;46424;-51
2021/10/12 10:31:52;;;;;;;;;4.00;4.00;;;;;21.45;42.73;101941.63;5018508;28;45728;-52
2021/10/12 10:34:27;;;;;;;;;3.00;3.00;;;;;21.42;42.87;101937.34;5018632;28;45392;-54
2021/10/12 10:37:15;;;;;;;;;4.25;3.00;;;;;21.43;42.60;101927.66;5018457;28;45600;-54
2021/10/12 10:40:01;;;;;;;;;5.00;3.00;;;;;21.42;42.75;101928.59;5017955;28;46150;-51
2021/10/12 10:42:27;;;;;;;;;2.75;2.75;;;;;21.42;42.96;101915.41;5004322;28;45421;-54
2021/10/12 10:44:54;;;;;;;;;4.75;3.00;;;;;21.41;42.72;101911.03;5018399;28;45227;-53
2021/10/12 10:47:41;;;;;;;;;3.50;3.50;;;;;21.42;42.82;101910.13;5018457;28;45236;-53
2021/10/12 10:50:16;;;;;;;;;3.00;3.00;;;;;21.43;42.48;101911.84;5017720;28;45405;-53
2021/10/12 10:52:42;;;;;;;;;4.25;3.00;;;;;21.44;42.97;101913.56;5017811;28;45679;-51
2021/10/12 10:55:08;;;;;;;;;3.25;3.25;;;;;21.42;42.90;101910.13;5017961;28;45354;-52
2021/10/12 10:57:34;;;;;;;;;8.00;3.75;;;;;21.42;42.85;101923.31;5018040;28;45309;-53
2021/10/12 11:00:11;;;;;;;;;3.00;3.00;;;;;21.42;42.83;101913.59;5017549;28;46824;-53
2021/10/12 11:02:44;;;;;;;;;4.75;3.00;;;;;21.41;42.74;101918.97;5017512;28;45450;-53
2021/10/12 11:05:09;;;;;;;;;3.50;3.50;;;;;21.41;42.59;101913.69;5017930;28;45423;-51
2021/10/12 11:07:35;;;;;;;;;2.50;2.00;;;;;21.42;42.91;101910.13;5017883;28;45504;-53
2021/10/12 11:10:00;;;;;;;;;4.50;4.00;;;;;21.43;42.74;101909.22;5017607;28;46663;-53
2021/10/12 11:12:28;;;;;;;;;5.50;4.00;;;;;21.44;42.83;101910.94;5017146;28;45397;-52
2021/10/12 11:15:08;;;;;;;;;4.00;4.00;;;;;21.43;42.64;101894.22;5018070;28;45250;-55
2021/10/12 11:17:34;;;;;;;;;4.00;4.00;;;;;21.44;42.74;101889.81;5017690;28;45266;-54
2021/10/12 11:20:11;;;;;;;;;6.50;4.50;;;;;21.44;42.67;101895.09;5017388;28;45827;-53
2021/10/12 11:22:44;;;;;;;;;4.75;4.75;;;;;21.45;42.76;101892.38;4999593;28;45323;-52
2021/10/12 11:25:10;;;;;;;;;2.50;2.50;;;;;21.46;42.58;101890.59;5017610;28;45436;-54
2021/10/12 11:27:43;;;;;;;;;4.00;3.00;;;;;21.45;42.60;101888.88;5017459;28;45612;-54
2021/10/12 11:30:12;;;;;;;;;3.75;3.75;;;;;21.47;42.40;101895.81;5017151;28;45384;-53
2021/10/12 11:32:37;;;;;;;;;3.00;3.00;;;;;21.46;42.61;101890.59;5017134;28;45219;-55